Terminal Aerodrome Forecast
Issued by NWS El Paso, TX

Home | Current Version | Previous Version | Text Only | Print | Product List | Glossary On
Versions: 1 2 3 4 5 6 7 8 9 10 11 12 13 14
000
FTUS44 KEPZ 300534
TAFELP
TAF
KELP 300534Z 3006/0106 29011KT P6SM FEW090
     FM301400 24010KT P6SM SKC
     FM301900 24012G20KT P6SM FEW090
     FM010300 16006KT P6SM SCT140 SCT230=

USA.gov is the U.S. government's official web portal to all federal, state and local government web resources and services.